Time;durP1;ratioP1;P1;durP2;ratioP2;P2;SDS_P1;SDS_P2;PMS_P1;PMS_P2;Temp;Humidity;BMP_temperature;BMP_pressure;BME280_temperature;BME280_humidity;BME280_pressure;Samples;Min_cycle;Max_cycle;Signal;HPM_P1;HPM_P2
2021/04/17 00:01:16;;;;;;;9.93;8.17;;;5.00;81.20;;;;;;5039853;28;20593;-80
2021/04/17 00:03:43;;;;;;;9.67;8.27;;;5.00;81.40;;;;;;5034425;28;20226;-80
2021/04/17 00:06:11;;;;;;;11.33;7.87;;;5.00;81.40;;;;;;5029582;28;20210;-81
2021/04/17 00:08:38;;;;;;;12.57;7.80;;;5.00;82.10;;;;;;5039351;28;20219;-81
2021/04/17 00:11:05;;;;;;;11.67;7.87;;;5.00;81.50;;;;;;5039755;28;20631;-80
2021/04/17 00:13:53;;;;;;;9.63;8.63;;;5.00;81.60;;;;;;5040830;28;20203;-79
2021/04/17 00:16:36;;;;;;;12.73;8.03;;;4.90;82.20;;;;;;5034426;28;20265;-81
2021/04/17 00:19:04;;;;;;;11.00;7.60;;;4.90;81.70;;;;;;5036775;28;20243;-80
2021/04/17 00:21:31;;;;;;;10.27;8.10;;;4.80;81.80;;;;;;5036914;28;20225;-81
2021/04/17 00:23:59;;;;;;;8.57;7.70;;;4.80;82.10;;;;;;5034090;28;20566;-80
2021/04/17 00:26:26;;;;;;;10.23;7.40;;;4.70;82.20;;;;;;5039149;28;20214;-79
2021/04/17 00:28:53;;;;;;;11.20;8.20;;;4.70;82.40;;;;;;5036183;28;20208;-80
2021/04/17 00:32:03;;;;;;;11.50;7.87;;;4.70;82.50;;;;;;5035783;28;20569;-81
2021/04/17 00:34:35;;;;;;;11.87;8.17;;;4.70;82.60;;;;;;5031327;28;20216;-80
2021/04/17 00:37:05;;;;;;;12.00;8.10;;;4.70;82.60;;;;;;5020820;28;20325;-81
2021/04/17 00:39:32;;;;;;;12.70;7.87;;;4.60;82.60;;;;;;5033845;28;20218;-81
2021/04/17 00:41:59;;;;;;;11.33;7.90;;;4.60;82.80;;;;;;5021100;28;20263;-81
2021/04/17 00:44:33;;;;;;;15.13;8.13;;;4.60;82.90;;;;;;5033990;28;20212;-80
2021/04/17 00:47:08;;;;;;;10.10;8.97;;;4.50;82.90;;;;;;5036898;28;20203;-81
2021/04/17 00:49:55;;;;;;;15.87;9.53;;;4.50;82.70;;;;;;5027839;28;20216;-81
2021/04/17 00:52:22;;;;;;;15.47;10.33;;;4.50;82.90;;;;;;5028230;28;20243;-80
2021/04/17 00:54:49;;;;;;;14.13;9.03;;;4.50;83.10;;;;;;5025895;28;20284;-80
2021/04/17 00:57:16;;;;;;;14.30;9.57;;;4.50;83.20;;;;;;5021870;28;20223;-81
2021/04/17 00:59:43;;;;;;;11.80;8.43;;;4.60;83.30;;;;;;5023993;28;20215;-80
2021/04/17 01:02:18;;;;;;;18.87;11.27;;;4.60;83.30;;;;;;5038078;28;20262;-80
2021/04/17 01:04:49;;;;;;;15.20;11.13;;;4.50;83.20;;;;;;5030839;28;20215;-81
2021/04/17 01:07:32;;;;;;;17.87;12.07;;;4.40;83.40;;;;;;5040643;28;20321;-80
2021/04/17 01:10:08;;;;;;;19.53;12.17;;;4.30;84.00;;;;;;5032486;28;20224;-81
2021/04/17 01:12:39;;;;;;;18.03;11.70;;;4.30;84.30;;;;;;5059916;28;20222;-81
2021/04/17 01:15:09;;;;;;;19.63;11.70;;;4.30;84.50;;;;;;5047768;28;20219;-81
2021/04/17 01:17:38;;;;;;;17.13;11.60;;;4.30;84.70;;;;;;5046430;28;20231;-80
2021/04/17 01:20:05;;;;;;;15.57;10.63;;;4.30;85.00;;;;;;5052232;28;20225;-78
2021/04/17 01:22:33;;;;;;;15.97;10.33;;;4.30;85.00;;;;;;5054520;28;20583;-81
2021/04/17 01:25:08;;;;;;;19.17;10.90;;;4.30;84.80;;;;;;5048876;28;20215;-81
2021/04/17 01:27:35;;;;;;;16.23;9.90;;;4.30;84.70;;;;;;5053045;28;20304;-80
2021/04/17 01:30:10;;;;;;;16.03;9.80;;;4.40;84.60;;;;;;5059976;28;20214;-79
2021/04/17 01:32:38;;;;;;;13.83;9.77;;;4.40;84.40;;;;;;5061972;28;20228;-79
2021/04/17 01:35:11;;;;;;;13.93;10.00;;;4.30;84.20;;;;;;5043650;28;20215;-80
2021/04/17 01:38:18;;;;;;;16.60;9.87;;;4.30;84.10;;;;;;5050225;28;20214;-81
2021/04/17 01:40:48;;;;;;;17.23;10.40;;;4.30;83.90;;;;;;5024419;28;20317;-81
2021/04/17 01:43:17;;;;;;;14.40;9.60;;;4.30;84.00;;;;;;5057163;28;20214;-81
2021/04/17 01:45:45;;;;;;;12.97;9.53;;;4.30;84.10;;;;;;5049289;28;20221;-81
2021/04/17 01:48:13;;;;;;;19.10;11.13;;;4.20;84.10;;;;;;5034162;28;20215;-79
2021/04/17 01:50:41;;;;;;;15.27;10.70;;;4.20;84.10;;;;;;5042968;28;20210;-81
2021/04/17 01:53:15;;;;;;;15.03;10.90;;;4.10;84.10;;;;;;5037709;28;20830;-81
2021/04/17 01:55:42;;;;;;;17.27;10.67;;;4.20;84.40;;;;;;5049301;28;20246;-81
2021/04/17 01:58:10;;;;;;;17.67;11.00;;;4.20;84.60;;;;;;5052958;28;20214;-80
2021/04/17 02:00:37;;;;;;;14.30;10.07;;;4.10;84.60;;;;;;5038538;28;20277;-80
2021/04/17 02:03:45;;;;;;;14.13;10.40;;;4.20;84.70;;;;;;5038319;28;20240;-81
2021/04/17 02:06:55;;;;;;;12.27;9.50;;;4.20;84.80;;;;;;5037824;28;20233;-81
2021/04/17 02:09:22;;;;;;;12.67;10.03;;;4.10;84.60;;;;;;5039800;28;20321;-80
2021/04/17 02:11:48;;;;;;;11.90;8.77;;;4.10;84.70;;;;;;5033468;28;20210;-80
2021/04/17 02:14:16;;;;;;;13.50;10.17;;;4.10;84.70;;;;;;5058259;28;20217;-80
2021/04/17 02:17:11;;;;;;;12.80;9.50;;;4.10;85.50;;;;;;5041011;28;20214;-80
2021/04/17 02:19:37;;;;;;;13.27;9.27;;;4.10;85.00;;;;;;4991420;28;20214;-80
2021/04/17 02:22:05;;;;;;;13.83;10.13;;;4.10;85.00;;;;;;5034954;28;20226;-81
2021/04/17 02:24:33;;;;;;;14.93;10.73;;;4.10;85.00;;;;;;5040907;28;20221;-80
2021/04/17 02:27:00;;;;;;;13.57;9.43;;;4.10;85.20;;;;;;5028452;28;20218;-81
2021/04/17 02:29:27;;;;;;;12.23;9.37;;;4.10;85.20;;;;;;5027723;28;20233;-80
2021/04/17 02:31:53;;;;;;;14.20;9.27;;;4.10;85.20;;;;;;5036589;28;20207;-81
2021/04/17 02:34:23;;;;;;;12.73;9.60;;;4.10;85.20;;;;;;5037067;28;20210;-80
2021/04/17 02:36:50;;;;;;;12.30;8.83;;;4.10;85.30;;;;;;5037917;28;20206;-80
2021/04/17 02:39:16;;;;;;;10.77;9.40;;;4.10;85.30;;;;;;5040405;28;20219;-80
2021/04/17 02:41:43;;;;;;;12.87;9.33;;;4.10;85.30;;;;;;5051802;28;20206;-80
2021/04/17 02:44:10;;;;;;;10.83;9.53;;;4.10;85.30;;;;;;5056850;28;20210;-80
2021/04/17 02:46:36;;;;;;;14.40;9.43;;;4.00;85.30;;;;;;5047406;28;20225;-80
2021/04/17 02:49:03;;;;;;;15.77;9.70;;;4.00;85.40;;;;;;5045358;28;20237;-79
2021/04/17 02:51:30;;;;;;;12.47;9.37;;;4.10;85.50;;;;;;5052795;28;20207;-80
2021/04/17 02:53:57;;;;;;;15.73;9.43;;;4.00;85.50;;;;;;5057948;28;20221;-80
2021/04/17 02:56:24;;;;;;;12.03;9.13;;;4.00;85.50;;;;;;5041587;28;20215;-81
2021/04/17 02:58:51;;;;;;;11.07;8.87;;;4.00;85.50;;;;;;5057459;28;20290;-80
2021/04/17 03:01:17;;;;;;;14.03;9.20;;;4.00;85.50;;;;;;5036967;28;20203;-80
2021/04/17 03:03:45;;;;;;;12.17;9.83;;;4.00;85.50;;;;;;5055877;28;20812;-80
2021/04/17 03:06:12;;;;;;;15.33;10.03;;;4.00;85.60;;;;;;5040577;28;20224;-80
2021/04/17 03:08:39;;;;;;;11.10;8.63;;;4.00;85.60;;;;;;5053842;28;20215;-80
2021/04/17 03:11:05;;;;;;;17.97;10.40;;;4.00;85.60;;;;;;5061535;28;20210;-80
2021/04/17 03:13:32;;;;;;;13.30;9.90;;;4.10;85.70;;;;;;5038579;28;20903;-80
2021/04/17 03:15:59;;;;;;;12.53;9.00;;;4.00;85.70;;;;;;5046679;28;20227;-80
2021/04/17 03:18:26;;;;;;;11.77;8.83;;;4.00;85.70;;;;;;5058769;28;20634;-79
2021/04/17 03:20:53;;;;;;;11.97;8.83;;;4.00;85.70;;;;;;5061867;28;20537;-80
2021/04/17 03:23:20;;;;;;;12.00;9.37;;;4.10;85.80;;;;;;5048796;28;20221;-80
2021/04/17 03:25:47;;;;;;;12.33;8.97;;;4.10;85.70;;;;;;5052769;28;20235;-80
2021/04/17 03:28:14;;;;;;;16.97;9.00;;;4.10;85.70;;;;;;5040368;28;20540;-80
2021/04/17 03:30:41;;;;;;;11.57;8.90;;;4.10;85.70;;;;;;5045055;28;20217;-80
2021/04/17 03:33:08;;;;;;;12.77;9.00;;;4.10;85.70;;;;;;5056561;28;20219;-80
2021/04/17 03:35:35;;;;;;;12.87;9.90;;;4.10;85.70;;;;;;5032899;28;20964;-80
2021/04/17 03:38:03;;;;;;;14.53;10.50;;;4.10;85.60;;;;;;5029108;28;20218;-80
2021/04/17 03:40:30;;;;;;;13.30;9.37;;;4.10;85.60;;;;;;5057210;28;20572;-80
2021/04/17 03:42:57;;;;;;;11.83;9.57;;;4.10;85.50;;;;;;5056503;28;20238;-80
2021/04/17 03:45:25;;;;;;;13.33;10.17;;;4.10;85.60;;;;;;5046937;28;20793;-80
2021/04/17 03:47:52;;;;;;;16.87;10.77;;;4.00;85.50;;;;;;5041322;28;20265;-80
2021/04/17 03:50:19;;;;;;;14.07;10.53;;;4.00;85.60;;;;;;5051945;28;20528;-80
2021/04/17 03:52:46;;;;;;;13.43;10.27;;;4.00;85.70;;;;;;5054418;28;20214;-80
2021/04/17 03:55:15;;;;;;;13.40;10.73;;;4.10;85.80;;;;;;5061970;28;20223;-80
2021/04/17 03:57:43;;;;;;;16.10;11.93;;;4.10;85.80;;;;;;5042882;28;20214;-80
2021/04/17 04:00:13;;;;;;;15.03;10.23;;;4.10;85.80;;;;;;5044207;28;20206;-80
2021/04/17 04:02:41;;;;;;;13.73;10.27;;;4.10;85.80;;;;;;5050539;28;20227;-80
2021/04/17 04:05:08;;;;;;;12.23;9.80;;;4.10;85.80;;;;;;5038008;28;20530;-80
2021/04/17 04:07:35;;;;;;;16.83;10.57;;;4.20;85.80;;;;;;5054058;28;20253;-80
2021/04/17 04:10:04;;;;;;;16.77;11.17;;;4.20;85.60;;;;;;5047667;28;20262;-80
2021/04/17 04:12:31;;;;;;;17.07;9.33;;;4.10;86.00;;;;;;5052943;28;20218;-80
2021/04/17 04:14:57;;;;;;;11.37;9.53;;;4.10;85.40;;;;;;5030371;28;20219;-80
2021/04/17 04:17:24;;;;;;;13.43;10.27;;;4.20;85.40;;;;;;5039406;28;20275;-80
2021/04/17 04:19:51;;;;;;;14.63;11.07;;;4.20;85.40;;;;;;5071625;28;20298;-80
2021/04/17 04:22:18;;;;;;;14.03;10.80;;;4.10;85.40;;;;;;5058647;28;20297;-80
2021/04/17 04:24:45;;;;;;;17.93;10.87;;;4.10;85.30;;;;;;5055646;28;20219;-80
2021/04/17 04:27:12;;;;;;;16.43;10.53;;;4.20;85.50;;;;;;5041515;28;20631;-80
2021/04/17 04:29:39;;;;;;;14.77;11.03;;;4.20;85.60;;;;;;5041489;28;20214;-80
2021/04/17 04:32:06;;;;;;;16.13;10.63;;;4.20;85.70;;;;;;5060761;28;20728;-80
2021/04/17 04:34:33;;;;;;;14.03;10.83;;;4.30;85.70;;;;;;5061081;28;20218;-80
2021/04/17 04:37:00;;;;;;;13.60;11.07;;;4.30;85.60;;;;;;5043735;28;20621;-80
2021/04/17 04:39:27;;;;;;;13.80;10.60;;;4.30;85.60;;;;;;5061696;28;20256;-81
2021/04/17 04:41:54;;;;;;;15.43;11.43;;;4.30;85.60;;;;;;5033375;28;20215;-80
2021/04/17 04:44:20;;;;;;;17.03;11.27;;;4.30;85.60;;;;;;5051502;28;20666;-80
2021/04/17 04:46:47;;;;;;;17.27;11.90;;;4.40;85.60;;;;;;5033300;28;20215;-81
2021/04/17 04:49:14;;;;;;;15.00;10.43;;;4.40;85.50;;;;;;5061028;28;20215;-81
2021/04/17 04:51:41;;;;;;;17.30;10.83;;;4.40;85.30;;;;;;5070720;28;20272;-80
2021/04/17 04:54:08;;;;;;;19.97;12.57;;;4.40;85.10;;;;;;5057821;28;20210;-80
2021/04/17 04:56:35;;;;;;;15.27;11.87;;;4.40;84.90;;;;;;5041361;28;20226;-80
2021/04/17 04:59:37;;;;;;;17.80;12.43;;;4.40;84.90;;;;;;5046032;28;20282;-79
2021/04/17 05:02:04;;;;;;;17.00;12.10;;;4.40;85.00;;;;;;5043082;28;20221;-80
2021/04/17 05:04:31;;;;;;;19.27;12.00;;;4.50;85.00;;;;;;5060354;28;20701;-80
2021/04/17 05:06:58;;;;;;;16.50;11.87;;;4.50;84.90;;;;;;5039433;28;20254;-80
2021/04/17 05:09:25;;;;;;;21.07;12.53;;;4.60;84.80;;;;;;5029252;28;20215;-80
2021/04/17 05:11:52;;;;;;;17.20;11.63;;;4.60;84.80;;;;;;5038455;28;20215;-80
2021/04/17 05:14:18;;;;;;;17.30;12.37;;;4.70;84.90;;;;;;5034042;28;20219;-80
2021/04/17 05:16:45;;;;;;;15.00;11.03;;;4.80;84.80;;;;;;5040839;28;20216;-80
2021/04/17 05:19:12;;;;;;;17.53;12.00;;;4.80;84.60;;;;;;5036684;28;20215;-80
2021/04/17 05:21:40;;;;;;;19.33;12.37;;;4.90;84.60;;;;;;5040198;28;20223;-80
2021/04/17 05:24:07;;;;;;;15.50;12.40;;;4.90;84.50;;;;;;5047664;28;20231;-80
2021/04/17 05:26:34;;;;;;;15.50;12.10;;;5.10;84.50;;;;;;5025534;28;20207;-81
2021/04/17 05:29:01;;;;;;;17.40;12.87;;;5.10;84.50;;;;;;5033083;28;20243;-81
2021/04/17 05:31:50;;;;;;;20.03;14.23;;;5.20;84.40;;;;;;5036850;28;20242;-81
2021/04/17 05:34:17;;;;;;;19.23;12.37;;;5.30;84.30;;;;;;5032141;28;20273;-81
2021/04/17 05:36:44;;;;;;;17.93;13.37;;;5.40;84.10;;;;;;5033874;28;20214;-81
2021/04/17 05:39:11;;;;;;;17.30;14.10;;;5.50;83.80;;;;;;5027896;28;20215;-81
2021/04/17 05:41:55;;;;;;;20.53;13.87;;;5.60;83.60;;;;;;5026482;28;20215;-81
2021/04/17 05:44:21;;;;;;;17.23;12.93;;;5.60;83.40;;;;;;5027870;28;20306;-81
2021/04/17 05:46:48;;;;;;;21.90;13.90;;;5.70;83.10;;;;;;5032256;28;20229;-82
2021/04/17 05:49:15;;;;;;;17.27;13.30;;;5.80;83.10;;;;;;5042760;28;20207;-82
2021/04/17 05:51:43;;;;;;;17.77;12.40;;;5.90;83.00;;;;;;5033607;28;20545;-81
2021/04/17 05:54:11;;;;;;;18.13;13.33;;;6.00;82.70;;;;;;5033601;28;20733;-82
2021/04/17 05:56:38;;;;;;;17.13;12.30;;;6.10;82.50;;;;;;5050106;28;20223;-81
2021/04/17 05:59:05;;;;;;;16.53;12.73;;;6.10;82.30;;;;;;5018652;28;20219;-82
2021/04/17 06:01:32;;;;;;;20.13;13.10;;;6.20;82.30;;;;;;5025908;28;20211;-82
2021/04/17 06:04:01;;;;;;;19.87;14.57;;;6.30;82.30;;;;;;5032223;28;20227;-81
2021/04/17 06:06:28;;;;;;;23.80;13.60;;;6.40;82.20;;;;;;5035126;28;20211;-81
2021/04/17 06:08:56;;;;;;;18.17;12.30;;;6.50;82.10;;;;;;5032414;28;20207;-81
2021/04/17 06:11:23;;;;;;;21.87;13.10;;;6.60;81.90;;;;;;5019332;28;20774;-81
2021/04/17 06:13:51;;;;;;;19.20;13.60;;;6.60;81.70;;;;;;5017808;28;20251;-80
2021/04/17 06:16:17;;;;;;;22.07;13.90;;;6.70;81.70;;;;;;5028162;28;20330;-81
2021/04/17 06:19:02;;;;;;;18.23;13.07;;;6.70;81.50;;;;;;5018526;28;20607;-80
2021/04/17 06:21:30;;;;;;;19.40;13.07;;;6.80;81.50;;;;;;5020491;28;20235;-81
2021/04/17 06:23:56;;;;;;;17.10;13.60;;;6.90;81.40;;;;;;5014389;28;20227;-81
2021/04/17 06:26:23;;;;;;;17.73;14.40;;;7.00;81.20;;;;;;5028523;28;20211;-81
2021/04/17 06:28:50;;;;;;;18.50;13.80;;;7.20;81.20;;;;;;5016981;28;20214;-81
2021/04/17 06:31:18;;;;;;;20.83;14.37;;;7.30;80.90;;;;;;5012951;28;20216;-81
2021/04/17 06:33:45;;;;;;;16.93;14.03;;;7.40;80.50;;;;;;5019213;28;20219;-81
2021/04/17 06:36:12;;;;;;;19.13;14.23;;;7.50;80.50;;;;;;5012002;28;20258;-81
2021/04/17 06:38:39;;;;;;;16.63;13.67;;;7.60;80.10;;;;;;5016648;28;20344;-81
2021/04/17 06:41:07;;;;;;;17.03;13.93;;;7.70;79.90;;;;;;5024502;28;20211;-81
2021/04/17 06:43:41;;;;;;;17.27;14.67;;;7.80;79.70;;;;;;5026748;28;20324;-80
2021/04/17 06:46:11;;;;;;;20.63;14.97;;;7.90;79.50;;;;;;5048583;28;20244;-81
2021/04/17 06:48:39;;;;;;;20.63;15.97;;;8.10;79.60;;;;;;5020924;28;20297;-80
2021/04/17 06:51:29;;;;;;;22.07;15.60;;;8.20;79.30;;;;;;5045439;28;20246;-81
2021/04/17 06:54:13;;;;;;;18.83;13.93;;;8.30;79.00;;;;;;5044972;28;20654;-80
2021/04/17 06:56:41;;;;;;;23.27;15.27;;;8.50;79.00;;;;;;5039963;28;20213;-79
2021/04/17 06:59:09;;;;;;;24.40;14.83;;;8.50;78.80;;;;;;5037672;28;20210;-81
2021/04/17 07:01:39;;;;;;;20.03;14.20;;;8.60;78.70;;;;;;5033820;28;20210;-79
2021/04/17 07:04:07;;;;;;;15.80;13.97;;;8.70;78.90;;;;;;5051442;28;20240;-80
2021/04/17 07:06:35;;;;;;;17.93;13.63;;;8.80;78.90;;;;;;5039681;28;20250;-81
2021/04/17 07:09:04;;;;;;;16.67;13.60;;;9.00;78.70;;;;;;5039573;28;20295;-82
2021/04/17 07:11:40;;;;;;;14.17;12.67;;;9.10;78.50;;;;;;5038259;28;20218;-88
2021/04/17 07:14:16;;;;;;;18.10;13.10;;;9.20;78.30;;;;;;5030356;28;20222;-81
2021/04/17 07:16:56;;;;;;;16.10;12.47;;;9.30;78.20;;;;;;5056292;28;20236;-81
2021/04/17 07:19:24;;;;;;;15.17;13.03;;;9.50;77.70;;;;;;5050177;28;20209;-80
2021/04/17 07:21:52;;;;;;;21.43;13.63;;;9.70;77.20;;;;;;5031178;28;20215;-81
2021/04/17 07:24:26;;;;;;;17.07;13.20;;;9.90;77.00;;;;;;5029886;28;20654;-81
2021/04/17 07:26:53;;;;;;;19.30;13.30;;;10.20;76.50;;;;;;5029037;28;20288;-83
2021/04/17 07:29:23;;;;;;;16.07;13.17;;;10.30;75.90;;;;;;5037258;28;20269;-80
2021/04/17 07:31:55;;;;;;;14.53;12.83;;;10.60;75.50;;;;;;5032437;28;20284;-81
2021/04/17 07:34:24;;;;;;;17.23;13.90;;;10.80;75.10;;;;;;5029206;28;20214;-80
2021/04/17 07:37:00;;;;;;;16.03;14.33;;;10.90;74.80;;;;;;5049403;28;20207;-82
2021/04/17 07:39:39;;;;;;;18.33;14.77;;;11.10;74.10;;;;;;5034554;28;20214;-82
2021/04/17 07:42:11;;;;;;;17.10;14.17;;;11.30;73.90;;;;;;5046370;28;20214;-83
2021/04/17 07:44:46;;;;;;;20.13;14.90;;;11.50;73.10;;;;;;5029978;28;20222;-82
2021/04/17 07:47:33;;;;;;;16.90;14.37;;;11.70;71.40;;;;;;5054029;28;20222;-80
2021/04/17 07:50:06;;;;;;;20.17;15.43;;;11.80;70.80;;;;;;5028921;28;20611;-80
2021/04/17 07:52:34;;;;;;;18.13;16.13;;;12.00;70.40;;;;;;5041018;28;20260;-81
2021/04/17 07:55:01;;;;;;;26.67;19.10;;;12.20;69.80;;;;;;5033559;28;20631;-80
2021/04/17 07:57:39;;;;;;;26.87;21.23;;;12.40;69.40;;;;;;5050890;28;20802;-81
2021/04/17 08:00:12;;;;;;;29.20;19.77;;;12.60;69.10;;;;;;5037650;28;20216;-81
2021/04/17 08:02:53;;;;;;;26.00;17.87;;;12.80;68.70;;;;;;5030149;28;20297;-81
2021/04/17 08:05:22;;;;;;;25.03;17.17;;;12.90;67.40;;;;;;5052736;28;20213;-80
2021/04/17 08:07:49;;;;;;;22.33;17.73;;;13.00;67.30;;;;;;5057601;28;20241;-82
2021/04/17 08:10:18;;;;;;;18.93;14.53;;;13.10;67.10;;;;;;5042685;28;20261;-80
2021/04/17 08:12:47;;;;;;;23.10;15.93;;;13.20;66.30;;;;;;5045092;28;20242;-82
2021/04/17 08:15:20;;;;;;;18.57;16.37;;;13.30;66.30;;;;;;5035640;28;20217;-81
2021/04/17 08:17:52;;;;;;;17.73;15.17;;;13.40;65.90;;;;;;5055036;28;20250;-80
2021/04/17 08:20:21;;;;;;;19.87;16.33;;;13.40;64.50;;;;;;5035415;28;20302;-81
2021/04/17 08:22:54;;;;;;;17.50;15.47;;;13.40;64.10;;;;;;5040499;28;20225;-80
2021/04/17 08:25:24;;;;;;;20.83;17.50;;;13.30;65.10;;;;;;5052521;28;20540;-81
2021/04/17 08:27:53;;;;;;;19.30;16.33;;;13.30;64.90;;;;;;5033985;28;20268;-81
2021/04/17 08:30:22;;;;;;;22.37;17.30;;;13.30;65.30;;;;;;5036421;28;20218;-82
2021/04/17 08:32:49;;;;;;;20.07;17.30;;;13.30;65.70;;;;;;5053975;28;20623;-82
2021/04/17 08:35:24;;;;;;;17.30;15.30;;;13.30;65.80;;;;;;5043514;28;20210;-82
2021/04/17 08:37:51;;;;;;;21.43;14.63;;;13.20;65.00;;;;;;5037044;28;20215;-80
2021/04/17 08:40:40;;;;;;;17.70;15.43;;;13.20;64.80;;;;;;5047668;28;20825;-81
2021/04/17 08:43:16;;;;;;;17.23;14.37;;;13.30;64.60;;;;;;5038770;28;20419;-80
2021/04/17 08:46:05;;;;;;;15.43;13.83;;;13.40;64.80;;;;;;5045756;28;20229;-82
2021/04/17 08:48:44;;;;;;;14.83;12.93;;;13.60;64.10;;;;;;5028986;28;20203;-81
2021/04/17 08:52:05;;;;;;;15.47;13.83;;;13.70;64.30;;;;;;5039954;28;20214;-81
2021/04/17 08:54:31;;;;;;;17.53;13.40;;;13.70;63.30;;;;;;4990387;28;20631;-80
2021/04/17 08:57:01;;;;;;;17.60;14.43;;;13.60;63.40;;;;;;5055346;28;20269;-81
2021/04/17 08:59:33;;;;;;;14.63;13.13;;;13.50;63.30;;;;;;5031302;28;20219;-82
2021/04/17 09:02:09;;;;;;;14.50;13.00;;;13.50;63.60;;;;;;5033006;28;20272;-80
2021/04/17 09:05:14;;;;;;;14.77;13.20;;;13.50;64.10;;;;;;5036858;28;20231;-82
2021/04/17 09:07:47;;;;;;;14.27;12.73;;;13.60;63.80;;;;;;4994603;28;20351;-82
2021/04/17 09:10:24;;;;;;;13.47;12.07;;;13.70;64.40;;;;;;5024476;28;20226;-82
2021/04/17 09:13:10;;;;;;;14.07;12.57;;;13.90;63.70;;;;;;5049170;28;20218;-81
2021/04/17 09:16:06;;;;;;;17.67;12.73;;;14.00;63.20;;;;;;5032497;28;20219;-80
2021/04/17 09:18:37;;;;;;;15.00;12.83;;;14.20;63.40;;;;;;5027249;28;20223;-81
2021/04/17 09:21:21;;;;;;;14.17;12.70;;;14.40;63.10;;;;;;5033579;28;20210;-82
2021/04/17 09:24:15;;;;;;;16.30;12.43;;;14.50;62.60;;;;;;5030571;28;20234;-80
2021/04/17 09:27:02;;;;;;;18.37;12.90;;;14.70;62.00;;;;;;5043848;28;20223;-82
2021/04/17 09:29:35;;;;;;;12.70;11.53;;;15.00;61.00;;;;;;5043011;28;20280;-82
2021/04/17 09:32:18;;;;;;;14.40;11.30;;;15.20;60.50;;;;;;5032357;28;20221;-82
2021/04/17 09:35:00;;;;;;;14.23;12.63;;;15.40;59.60;;;;;;5019057;28;20249;-82
2021/04/17 09:37:35;;;;;;;15.80;11.50;;;15.70;59.50;;;;;;5051650;28;20305;-82
2021/04/17 09:40:04;;;;;;;12.37;11.03;;;16.00;58.80;;;;;;5030712;28;20277;-83
2021/04/17 09:42:53;;;;;;;12.13;10.93;;;16.10;57.00;;;;;;5034283;28;20528;-83
2021/04/17 09:45:33;;;;;;;15.33;10.67;;;16.20;55.60;;;;;;5052576;28;20309;-81
2021/04/17 09:48:08;;;;;;;11.57;10.40;;;16.20;55.80;;;;;;5046586;28;20524;-80
2021/04/17 09:50:38;;;;;;;10.90;9.90;;;16.50;54.50;;;;;;5039609;28;20225;-80
2021/04/17 09:53:19;;;;;;;11.37;8.53;;;16.80;54.10;;;;;;5046629;28;20277;-80
2021/04/17 09:56:12;;;;;;;11.07;7.93;;;17.30;53.10;;;;;;5039978;28;20285;-82
2021/04/17 09:58:43;;;;;;;10.07;5.37;;;17.40;52.90;;;;;;5033424;28;20634;-80
2021/04/17 10:01:15;;;;;;;10.53;5.10;;;17.30;47.90;;;;;;5044695;28;20584;-79
2021/04/17 10:04:01;;;;;;;7.57;4.83;;;17.10;47.60;;;;;;5027278;28;20226;-80
2021/04/17 10:06:34;;;;;;;7.60;4.80;;;16.80;49.80;;;;;;5056610;28;20257;-82
2021/04/17 10:09:26;;;;;;;6.47;5.47;;;16.60;49.30;;;;;;5053105;28;20228;-82
2021/04/17 10:12:34;;;;;;;7.53;4.33;;;16.20;50.00;;;;;;5035366;28;20312;-85
2021/04/17 10:15:34;;;;;;;6.80;4.10;;;16.20;49.30;;;;;;5043187;28;20214;-82
2021/04/17 10:18:05;;;;;;;6.97;4.70;;;16.50;48.70;;;;;;5057827;28;20206;-80
2021/04/17 10:20:33;;;;;;;5.03;4.20;;;16.70;48.80;;;;;;5022880;28;20627;-82
2021/04/17 10:23:06;;;;;;;6.63;4.10;;;16.70;47.30;;;;;;5057345;28;20240;-83
2021/04/17 10:25:42;;;;;;;7.80;4.23;;;17.00;46.70;;;;;;5028506;28;20218;-82
2021/04/17 10:28:22;;;;;;;7.77;4.17;;;17.40;47.40;;;;;;5050415;28;20546;-82
2021/04/17 10:30:52;;;;;;;5.90;4.47;;;17.50;47.20;;;;;;5056872;28;20206;-80
2021/04/17 10:33:27;;;;;;;6.90;4.80;;;17.40;46.70;;;;;;5056271;28;20210;-82
2021/04/17 10:36:02;;;;;;;9.27;4.50;;;17.50;46.00;;;;;;5042449;28;20213;-82
2021/04/17 10:41:37;;;;;;;4.90;4.30;;;17.70;45.70;;;;;;5037939;28;20219;-83
2021/04/17 10:44:19;;;;;;;5.60;4.70;;;17.50;46.50;;;;;;5035782;28;20261;-81
2021/04/17 10:46:48;;;;;;;9.80;5.90;;;17.70;47.40;;;;;;5046559;28;20273;-82
2021/04/17 10:49:44;;;;;;;8.53;5.10;;;17.90;45.90;;;;;;5029355;28;20238;-83
2021/04/17 10:52:34;;;;;;;6.77;5.23;;;17.90;43.20;;;;;;4994381;28;20631;-84
2021/04/17 10:55:02;;;;;;;7.93;6.27;;;17.50;43.70;;;;;;4980241;28;20217;-82
2021/04/17 10:57:43;;;;;;;7.13;5.27;;;17.50;45.80;;;;;;5066664;28;20233;-82
2021/04/17 11:00:13;;;;;;;5.13;4.40;;;17.20;45.90;;;;;;5043678;28;20293;-83
2021/04/17 11:02:49;;;;;;;5.30;4.77;;;17.20;44.20;;;;;;5047331;28;20214;-83
2021/04/17 11:05:17;;;;;;;6.53;5.40;;;17.30;43.70;;;;;;5021063;28;20222;-83
2021/04/17 11:07:46;;;;;;;9.53;4.70;;;17.40;42.30;;;;;;5032392;28;20234;-84
2021/04/17 11:10:13;;;;;;;4.83;3.90;;;17.40;41.00;;;;;;5055147;28;20305;-85
2021/04/17 11:12:40;;;;;;;6.97;5.13;;;17.40;40.40;;;;;;5030282;28;20301;-83
2021/04/17 11:15:15;;;;;;;6.70;5.23;;;17.10;42.40;;;;;;5055572;28;20297;-83
2021/04/17 11:17:41;;;;;;;6.97;5.27;;;17.10;44.90;;;;;;5043328;28;20249;-82
2021/04/17 11:20:20;;;;;;;4.93;4.00;;;17.30;43.20;;;;;;5039004;28;20215;-82
2021/04/17 11:22:47;;;;;;;5.77;3.97;;;17.40;40.80;;;;;;5021013;28;20229;-84
2021/04/17 11:25:17;;;;;;;6.27;5.67;;;17.10;38.90;;;;;;5039213;28;20215;-84
2021/04/17 11:27:43;;;;;;;5.80;4.67;;;16.50;40.20;;;;;;5039206;28;20285;-85
2021/04/17 11:30:11;;;;;;;7.67;5.73;;;16.20;43.00;;;;;;5040430;28;20210;-84
2021/04/17 11:32:39;;;;;;;7.20;5.63;;;16.30;43.10;;;;;;5029414;28;20221;-83
2021/04/17 11:35:09;;;;;;;5.43;4.93;;;16.70;44.00;;;;;;5059855;28;20585;-86
2021/04/17 11:37:47;;;;;;;5.07;4.53;;;17.00;42.20;;;;;;5047176;28;20202;-83
2021/04/17 11:40:14;;;;;;;6.80;5.33;;;17.00;40.80;;;;;;5042753;28;20206;-84
2021/04/17 11:42:41;;;;;;;7.40;5.27;;;16.60;40.60;;;;;;5054420;28;20242;-83
2021/04/17 11:45:08;;;;;;;5.50;5.00;;;16.20;42.50;;;;;;5029820;28;20215;-85
2021/04/17 11:47:37;;;;;;;6.67;5.00;;;16.20;43.20;;;;;;5057581;28;20210;-83
2021/04/17 11:50:04;;;;;;;6.30;4.90;;;16.40;43.00;;;;;;5040479;28;20210;-84
2021/04/17 11:52:31;;;;;;;6.83;5.77;;;16.60;45.30;;;;;;5039056;28;20218;-83
2021/04/17 11:54:59;;;;;;;8.10;5.33;;;16.60;44.80;;;;;;5039983;28;20223;-83
2021/04/17 11:57:26;;;;;;;6.97;4.43;;;16.40;44.40;;;;;;5030222;28;20223;-84
2021/04/17 11:59:53;;;;;;;8.27;5.10;;;16.10;44.70;;;;;;5043558;28;20214;-85
2021/04/17 12:02:25;;;;;;;6.53;4.97;;;16.20;45.10;;;;;;5044408;28;20238;-83
2021/04/17 12:04:52;;;;;;;7.20;4.73;;;16.50;44.00;;;;;;5054568;28;20238;-84
2021/04/17 12:07:21;;;;;;;5.27;4.53;;;16.70;42.40;;;;;;5029808;28;20235;-86
2021/04/17 12:09:48;;;;;;;7.37;5.00;;;16.80;43.20;;;;;;5039013;28;20222;-84
2021/04/17 12:12:28;;;;;;;6.50;4.70;;;16.80;41.90;;;;;;5039938;28;20238;-84
2021/04/17 12:15:01;;;;;;;6.63;4.40;;;16.40;42.10;;;;;;5030963;28;20222;-83
2021/04/17 12:17:28;;;;;;;4.87;4.20;;;16.20;43.80;;;;;;5043120;28;20546;-83
2021/04/17 12:19:56;;;;;;;6.57;4.60;;;16.10;42.90;;;;;;5031663;28;20636;-85
2021/04/17 12:22:23;;;;;;;4.43;4.03;;;15.80;43.60;;;;;;5035243;28;20218;-85
2021/04/17 12:24:50;;;;;;;9.23;4.33;;;15.70;43.80;;;;;;5041200;28;20344;-84
2021/04/17 12:27:17;;;;;;;5.43;4.60;;;15.90;43.90;;;;;;5036296;28;20643;-82
2021/04/17 12:29:45;;;;;;;4.90;4.20;;;16.20;44.80;;;;;;5042662;28;20217;-80
2021/04/17 12:32:13;;;;;;;5.77;3.80;;;16.40;42.80;;;;;;5034491;28;20235;-83
2021/04/17 12:34:40;;;;;;;6.07;4.60;;;16.50;43.00;;;;;;5030860;28;20219;-85
2021/04/17 12:37:07;;;;;;;5.03;3.87;;;16.50;43.70;;;;;;5027455;28;20321;-81
2021/04/17 12:39:34;;;;;;;4.87;4.03;;;16.60;42.10;;;;;;5032059;28;20211;-82
2021/04/17 12:42:01;;;;;;;3.93;3.37;;;16.70;41.60;;;;;;5039202;28;20846;-82
2021/04/17 12:44:30;;;;;;;4.20;3.80;;;16.90;41.40;;;;;;5041005;28;20245;-82
2021/04/17 12:46:57;;;;;;;6.47;3.87;;;17.00;40.50;;;;;;5044886;28;20541;-81
2021/04/17 12:49:24;;;;;;;5.90;3.77;;;17.10;39.30;;;;;;5050106;28;20239;-81
2021/04/17 12:51:51;;;;;;;5.70;3.43;;;17.10;40.30;;;;;;5032536;28;20207;-82
2021/04/17 12:54:18;;;;;;;4.10;3.63;;;17.20;41.60;;;;;;5049664;28;20221;-82
2021/04/17 12:56:45;;;;;;;3.60;3.30;;;17.40;38.20;;;;;;5032533;28;20523;-84
2021/04/17 12:59:12;;;;;;;3.73;3.43;;;17.30;39.10;;;;;;5057902;28;20317;-83
2021/04/17 13:01:38;;;;;;;4.37;3.57;;;16.90;38.80;;;;;;5032180;28;20214;-82
2021/04/17 13:04:05;;;;;;;4.50;4.10;;;16.70;39.00;;;;;;5064936;28;20234;-82
2021/04/17 13:06:32;;;;;;;4.30;3.80;;;16.80;41.10;;;;;;5053287;28;20226;-82